createdAt,value
2022-11-19T00:00:56.513Z,8.35
2022-11-19T00:05:51.517Z,7.70
2022-11-19T00:10:46.940Z,7.53
2022-11-19T00:15:41.481Z,8.45
2022-11-19T00:20:36.473Z,8.40
2022-11-19T00:25:32.189Z,8.60
2022-11-19T00:30:47.022Z,8.13
2022-11-19T00:35:40.113Z,6.93
2022-11-19T00:40:34.070Z,8.02
2022-11-19T00:45:27.020Z,9.45
2022-11-19T00:50:21.057Z,9.38
2022-11-19T00:55:14.779Z,10.60
2022-11-19T01:00:12.911Z,11.63
2022-11-19T01:05:08.694Z,12.10
2022-11-19T01:10:02.199Z,13.25
2022-11-19T01:14:55.476Z,13.63
2022-11-19T01:19:48.839Z,14.20
2022-11-19T01:24:42.950Z,12.77
2022-11-19T01:29:37.005Z,15.10
2022-11-19T01:34:31.609Z,12.30
2022-11-19T01:39:25.757Z,13.35
2022-11-19T01:44:59.538Z,14.38
2022-11-19T01:49:53.781Z,13.98
2022-11-19T01:54:50.994Z,10.35
2022-11-19T01:59:45.997Z,9.60
2022-11-19T02:04:40.494Z,7.30
2022-11-19T02:09:35.225Z,7.10
2022-11-19T02:15:04.909Z,7.40
2022-11-19T02:20:42.021Z,6.63
2022-11-19T02:25:50.801Z,6.22
2022-11-19T02:30:49.976Z,6.18
2022-11-19T02:35:47.393Z,7.20
2022-11-19T02:40:43.813Z,5.95
2022-11-19T02:45:41.243Z,7.18
2022-11-19T02:50:38.748Z,7.55
2022-11-19T02:55:32.142Z,6.40
2022-11-19T03:00:43.742Z,6.60
2022-11-19T03:05:40.526Z,7.90
2022-11-19T03:10:58.235Z,7.65
2022-11-19T03:16:10.050Z,7.57
2022-11-19T03:21:33.816Z,8.20
2022-11-19T03:26:38.047Z,6.72
2022-11-19T03:31:31.932Z,7.32
2022-11-19T03:36:28.419Z,6.78
2022-11-19T03:41:22.460Z,7.30
2022-11-19T03:46:17.425Z,7.90
2022-11-19T03:51:27.133Z,7.10
2022-11-19T03:56:23.406Z,6.90
2022-11-19T04:01:17.957Z,8.48
2022-11-19T04:06:11.827Z,9.02
2022-11-19T04:15:57.341Z,8.13
2022-11-19T04:20:52.772Z,7.95
2022-11-19T04:25:51.759Z,8.35
2022-11-19T04:30:45.899Z,8.18
2022-11-19T04:35:39.756Z,8.93
2022-11-19T04:40:33.069Z,9.18
2022-11-19T04:45:26.787Z,8.98
2022-11-19T04:50:20.711Z,8.40
2022-11-19T04:55:14.434Z,9.05
2022-11-19T05:00:09.945Z,8.80
2022-11-19T05:05:03.810Z,10.00
2022-11-19T05:09:57.432Z,7.75
2022-11-19T05:14:50.709Z,6.15
2022-11-19T05:19:43.652Z,5.20
2022-11-19T05:24:37.389Z,4.30
2022-11-19T05:29:31.010Z,4.70
2022-11-19T05:34:25.304Z,5.47
2022-11-19T05:39:22.068Z,5.40
2022-11-19T05:44:15.910Z,5.05
2022-11-19T05:49:09.856Z,5.80
2022-11-19T05:54:03.970Z,6.72
2022-11-19T05:58:57.515Z,5.85
2022-11-19T06:03:51.485Z,5.93
2022-11-19T06:08:45.089Z,5.93
2022-11-19T06:13:38.953Z,5.97
2022-11-19T06:18:33.008Z,7.93
2022-11-19T06:23:26.697Z,6.80
2022-11-19T06:28:20.720Z,6.43
2022-11-19T06:33:14.171Z,7.65
2022-11-19T06:38:08.154Z,6.45
2022-11-19T06:43:02.703Z,6.43
2022-11-19T06:47:56.266Z,7.18
2022-11-19T06:52:50.644Z,7.15
2022-11-19T06:57:45.049Z,6.80
2022-11-19T07:02:38.733Z,9.65
2022-11-19T07:07:33.117Z,7.38
2022-11-19T07:12:27.969Z,8.23
2022-11-19T07:17:21.553Z,7.40
2022-11-19T07:22:15.593Z,6.70
2022-11-19T07:27:09.871Z,6.85
2022-11-19T07:32:08.023Z,7.72
2022-11-19T07:37:01.730Z,7.38
2022-11-19T07:42:13.017Z,7.47
2022-11-19T07:47:08.738Z,7.25
2022-11-19T07:52:02.973Z,6.90
2022-11-19T07:56:57.488Z,6.60
2022-11-19T08:01:52.058Z,7.78
2022-11-19T08:06:46.896Z,8.27
2022-11-19T08:11:41.193Z,8.00
2022-11-19T08:16:53.711Z,9.48
2022-11-19T08:21:48.834Z,17.70
2022-11-19T08:26:42.850Z,26.75
2022-11-19T08:31:36.871Z,25.02
2022-11-19T08:36:30.509Z,26.80
2022-11-19T08:41:42.509Z,30.17
2022-11-19T08:46:35.377Z,30.75
2022-11-19T08:51:29.773Z,32.95
2022-11-19T08:56:25.103Z,30.67
2022-11-19T09:01:18.848Z,32.17
2022-11-19T09:06:13.022Z,33.53
2022-11-19T09:11:32.616Z,32.17
2022-11-19T09:16:30.684Z,36.03
2022-11-19T09:21:24.942Z,37.42
2022-11-19T09:26:19.774Z,38.22
2022-11-19T09:31:19.494Z,36.22
2022-11-19T09:36:14.717Z,33.63
2022-11-19T09:41:33.853Z,30.25
2022-11-19T09:46:31.597Z,26.65
2022-11-19T09:51:30.392Z,19.65
2022-11-19T10:01:37.936Z,14.60
2022-11-19T10:06:50.887Z,12.50
2022-11-19T10:12:25.133Z,10.13
2022-11-19T10:17:39.044Z,8.20
2022-11-19T10:22:57.127Z,9.25
2022-11-19T10:28:08.713Z,9.77
2022-11-19T10:33:37.905Z,7.75
2022-11-19T10:38:57.325Z,9.75
2022-11-19T10:43:50.585Z,9.15
2022-11-19T10:48:47.354Z,11.48
2022-11-19T10:54:03.523Z,47.75
2022-11-19T10:59:20.819Z,44.00
2022-11-19T11:04:21.584Z,33.55
2022-11-19T11:09:37.719Z,13.23
2022-11-19T11:15:11.152Z,18.10
2022-11-19T11:20:21.749Z,14.43
2022-11-19T11:25:26.850Z,12.15
2022-11-19T11:30:20.961Z,16.85
2022-11-19T11:35:36.565Z,17.45
2022-11-19T11:40:30.716Z,13.82
2022-11-19T11:45:49.266Z,12.15
2022-11-19T11:51:22.556Z,13.88
2022-11-19T11:56:41.295Z,26.58
2022-11-19T12:02:14.075Z,21.30
2022-11-19T12:07:19.458Z,20.67
2022-11-19T12:12:53.750Z,16.15
2022-11-19T12:18:22.874Z,15.68
2022-11-19T12:23:45.045Z,17.85
2022-11-19T12:28:57.019Z,15.40
2022-11-19T12:34:00.866Z,16.73
2022-11-19T12:39:02.987Z,17.70
2022-11-19T12:44:00.978Z,16.50
2022-11-19T12:49:18.612Z,16.50
2022-11-19T12:54:15.781Z,17.58
2022-11-19T12:59:25.773Z,17.80
2022-11-19T13:05:11.387Z,17.80
2022-11-19T13:10:13.241Z,18.60
2022-11-19T13:15:20.217Z,60.05
2022-11-19T13:20:36.239Z,23.90
2022-11-19T13:25:49.453Z,22.02
2022-11-19T13:31:03.517Z,19.65
2022-11-19T13:36:18.245Z,19.48
2022-11-19T13:41:59.524Z,20.27
2022-11-19T13:46:59.505Z,18.92
2022-11-19T13:52:04.340Z,18.73
2022-11-19T13:57:43.263Z,19.63
2022-11-19T14:03:13.781Z,18.88
2022-11-19T14:08:31.585Z,18.58
2022-11-19T14:13:43.239Z,20.60
2022-11-19T14:19:07.165Z,19.83
2022-11-19T14:24:48.177Z,19.30
2022-11-19T14:29:47.664Z,23.05
2022-11-19T14:35:06.596Z,19.63
2022-11-19T14:40:22.764Z,23.42
2022-11-19T14:45:25.488Z,25.13
2022-11-19T14:50:30.455Z,27.98
2022-11-19T14:55:36.136Z,25.55
2022-11-19T15:00:31.750Z,26.13
2022-11-19T15:05:51.806Z,25.10
2022-11-19T15:11:10.846Z,25.17
2022-11-19T15:16:14.659Z,25.48
2022-11-19T15:21:33.461Z,26.25
2022-11-19T15:26:43.732Z,27.13
2022-11-19T15:31:48.530Z,27.83
2022-11-19T15:36:47.768Z,29.80
2022-11-19T15:42:00.937Z,30.15
2022-11-19T15:46:59.001Z,30.38
2022-11-19T15:52:16.130Z,29.93
2022-11-19T15:57:22.648Z,33.33
2022-11-19T16:02:20.829Z,33.22
2022-11-19T16:07:14.440Z,34.47
2022-11-19T16:12:26.777Z,30.90
2022-11-19T16:17:43.434Z,29.52
2022-11-19T16:22:55.865Z,29.30
2022-11-19T16:27:49.399Z,28.60
2022-11-19T16:32:43.657Z,28.55
2022-11-19T16:37:38.188Z,30.10
2022-11-19T16:42:33.435Z,29.80
2022-11-19T16:47:38.403Z,30.00
2022-11-19T16:52:35.318Z,28.73
2022-11-19T16:57:30.827Z,28.73
2022-11-19T17:02:29.713Z,29.63
2022-11-19T17:13:00.733Z,29.30
2022-11-19T17:18:05.450Z,32.60
2022-11-19T17:23:04.335Z,33.78
2022-11-19T17:27:58.926Z,35.97
2022-11-19T17:33:03.609Z,82.13
2022-11-19T17:37:59.870Z,125.30
2022-11-19T17:43:12.160Z,72.15
2022-11-19T17:48:19.967Z,71.05
2022-11-19T17:53:13.765Z,83.93
2022-11-19T17:58:07.978Z,63.60
2022-11-19T18:03:03.338Z,37.72
2022-11-19T18:07:57.823Z,31.65
2022-11-19T18:12:50.958Z,31.17
2022-11-19T18:17:44.994Z,30.67
2022-11-19T18:22:38.902Z,37.00
2022-11-19T18:27:33.077Z,31.33
2022-11-19T18:32:26.973Z,31.50
2022-11-19T18:37:21.262Z,31.45
2022-11-19T18:42:15.455Z,32.50
2022-11-19T18:47:11.920Z,30.17
2022-11-19T18:52:08.688Z,28.15
2022-11-19T18:57:02.928Z,27.88
2022-11-19T19:01:56.518Z,27.42
2022-11-19T19:06:50.075Z,27.30
2022-11-19T19:12:02.516Z,25.55
2022-11-19T19:16:56.185Z,25.92
2022-11-19T19:21:49.655Z,27.10
2022-11-19T19:26:42.790Z,29.25
2022-11-19T19:31:37.339Z,28.52
2022-11-19T19:36:31.901Z,26.48
2022-11-19T19:41:27.566Z,30.25
2022-11-19T19:46:22.344Z,41.05
2022-11-19T19:51:17.281Z,29.45
2022-11-19T19:56:19.799Z,30.08
2022-11-19T20:01:17.698Z,46.63
2022-11-19T20:06:13.311Z,45.15
2022-11-19T20:11:10.406Z,33.00
2022-11-19T20:16:18.873Z,41.53
2022-11-19T20:21:17.474Z,26.65
2022-11-19T20:26:16.655Z,26.27
2022-11-19T20:31:18.615Z,24.55
2022-11-19T20:36:13.857Z,28.48
2022-11-19T20:41:29.618Z,24.67
2022-11-19T20:46:23.399Z,26.75
2022-11-19T20:51:17.079Z,32.95
2022-11-19T20:56:09.917Z,35.70
2022-11-19T21:01:31.260Z,47.58
2022-11-19T21:06:25.361Z,52.20
2022-11-19T21:11:19.970Z,24.65
2022-11-19T21:16:15.028Z,26.52
2022-11-19T21:21:09.741Z,25.85
2022-11-19T21:26:10.254Z,25.45
2022-11-19T21:31:04.153Z,27.63
2022-11-19T21:35:59.550Z,27.42
2022-11-19T21:40:54.303Z,26.70
2022-11-19T21:45:49.055Z,26.83
2022-11-19T21:50:42.608Z,30.38
2022-11-19T21:55:37.171Z,24.55
2022-11-19T22:00:31.207Z,26.42
2022-11-19T22:05:25.974Z,25.73
2022-11-19T22:10:19.278Z,27.67
2022-11-19T22:15:13.887Z,28.38
2022-11-19T22:20:07.544Z,26.75
2022-11-19T22:25:01.198Z,27.77
2022-11-19T22:29:56.744Z,27.35
2022-11-19T22:34:50.255Z,28.85
2022-11-19T22:39:44.712Z,27.15
2022-11-19T22:44:38.674Z,28.50
2022-11-19T22:49:34.970Z,30.77
2022-11-19T22:54:29.430Z,28.48
2022-11-19T22:59:23.722Z,27.58
2022-11-19T23:04:17.106Z,26.00
2022-11-19T23:09:09.799Z,30.45
2022-11-19T23:14:03.830Z,28.10
2022-11-19T23:18:58.131Z,26.77
2022-11-19T23:23:52.304Z,25.85
2022-11-19T23:28:46.203Z,25.15
2022-11-19T23:33:40.044Z,25.77
2022-11-19T23:38:35.193Z,25.92
2022-11-19T23:43:29.779Z,23.85
2022-11-19T23:48:23.872Z,21.85
2022-11-19T23:53:17.517Z,21.35
2022-11-19T23:58:11.547Z,22.70
